Time;durP1;ratioP1;P1;durP2;ratioP2;P2;SDS_P1;SDS_P2;PMS_P1;PMS_P2;Temp;Humidity;BMP_temperature;BMP_pressure;BME280_temperature;BME280_humidity;BME280_pressure;Samples;Min_cycle;Max_cycle;Signal;HPM_P1;HPM_P2
2023/01/18 00:01:47;;;;;;;4.18;2.17;;;;;;;8.96;100.00;91524.19;5075445;28;20056;-70
2023/01/18 00:04:14;;;;;;;7.63;2.30;;;;;;;8.97;100.00;91550.56;5074624;28;20109;-70
2023/01/18 00:06:41;;;;;;;5.95;2.08;;;;;;;8.94;100.00;91552.59;5074746;28;20049;-69
2023/01/18 00:09:08;;;;;;;3.70;1.50;;;;;;;8.93;100.00;91543.34;5074706;28;20791;-70
2023/01/18 00:11:35;;;;;;;4.97;1.45;;;;;;;8.95;100.00;91559.25;5075320;28;20412;-70
2023/01/18 00:14:01;;;;;;;4.13;1.50;;;;;;;8.94;100.00;91541.59;5074359;28;20538;-70
2023/01/18 00:16:29;;;;;;;5.03;1.40;;;;;;;8.89;100.00;91538.97;5073755;28;20054;-70
2023/01/18 00:18:58;;;;;;;5.40;1.65;;;;;;;8.90;100.00;91515.69;5071378;28;20415;-70
2023/01/18 00:21:25;;;;;;;4.53;1.67;;;;;;;8.86;100.00;91508.72;5071799;28;20095;-70
2023/01/18 00:23:52;;;;;;;6.22;1.38;;;;;;;8.88;100.00;91504.13;5071561;28;20049;-70
2023/01/18 00:26:19;;;;;;;4.90;1.40;;;;;;;8.89;100.00;91508.25;5071716;28;20064;-70
2023/01/18 00:28:46;;;;;;;6.22;2.25;;;;;;;8.90;100.00;91513.13;5071514;28;20041;-69
2023/01/18 00:31:15;;;;;;;5.82;1.70;;;;;;;8.93;100.00;91499.03;5071635;28;20488;-70
2023/01/18 00:33:43;;;;;;;8.88;1.65;;;;;;;8.94;100.00;91506.50;5071210;28;20044;-70
2023/01/18 00:36:12;;;;;;;4.28;1.42;;;;;;;8.99;100.00;91522.94;5071378;28;20040;-70
2023/01/18 00:38:38;;;;;;;4.43;1.70;;;;;;;8.99;100.00;91515.25;5071272;28;20493;-69
2023/01/18 00:41:05;;;;;;;7.20;1.65;;;;;;;8.99;100.00;91505.78;5071614;28;20053;-69
2023/01/18 00:43:40;;;;;;;4.03;1.60;;;;;;;9.02;100.00;91494.28;5071065;28;20139;-69
2023/01/18 00:46:08;;;;;;;4.82;1.65;;;;;;;8.99;100.00;91487.84;5071469;28;20146;-69
2023/01/18 00:48:35;;;;;;;3.90;1.80;;;;;;;8.97;100.00;91446.34;5045136;28;20044;-69
2023/01/18 00:51:02;;;;;;;5.82;1.45;;;;;;;8.77;100.00;91444.38;5071089;28;20044;-69
2023/01/18 00:53:31;;;;;;;5.13;1.55;;;;;;;9.03;100.00;91477.91;5071376;28;20044;-69
2023/01/18 00:55:58;;;;;;;6.97;1.60;;;;;;;9.05;100.00;91494.56;5070917;28;20044;-69
2023/01/18 00:58:25;;;;;;;11.77;2.35;;;;;;;9.05;100.00;91473.28;5071059;28;20106;-69
2023/01/18 01:00:52;;;;;;;8.32;1.60;;;;;;;9.06;100.00;91487.66;5069889;28;20489;-69
2023/01/18 01:03:20;;;;;;;5.45;1.90;;;;;;;9.05;100.00;91488.66;5058513;28;20052;-69
2023/01/18 01:08:33;;;;;;;5.00;1.60;;;;;;;9.09;100.00;91484.59;5070877;28;20055;-69
2023/01/18 01:11:09;;;;;;;5.22;1.40;;;;;;;9.10;100.00;91486.16;5070408;28;20617;-69
2023/01/18 01:27:19;;;;;;;6.60;1.40;;;;;;;9.12;100.00;91527.66;5070544;28;20416;-69
2023/01/18 01:29:46;;;;;;;6.55;1.58;;;;;;;9.13;100.00;91536.13;5069335;28;20049;-69
2023/01/18 01:32:13;;;;;;;5.13;1.80;;;;;;;9.15;100.00;91527.19;5070001;28;20048;-69
2023/01/18 01:34:39;;;;;;;5.25;1.60;;;;;;;9.14;100.00;91543.56;5070387;28;20048;-69
2023/01/18 01:37:06;;;;;;;6.68;1.80;;;;;;;9.12;100.00;91529.47;5070194;28;20052;-69
2023/01/18 01:39:34;;;;;;;6.53;1.55;;;;;;;9.09;100.00;91515.34;5070590;28;20082;-69
2023/01/18 01:42:01;;;;;;;8.10;1.67;;;;;;;9.14;100.00;91530.75;5070043;28;20056;-69
2023/01/18 01:44:46;;;;;;;6.00;1.50;;;;;;;9.10;100.00;91529.69;5070278;28;20114;-69
2023/01/18 01:47:23;;;;;;;4.03;1.45;;;;;;;9.12;100.00;91526.91;5070047;28;20048;-69
2023/01/18 01:49:56;;;;;;;5.50;1.80;;;;;;;9.12;100.00;91527.66;5065259;28;20452;-69
2023/01/18 01:52:27;;;;;;;5.38;1.42;;;;;;;9.14;100.00;91535.09;5049635;28;20480;-69
2023/01/18 01:55:00;;;;;;;6.28;2.03;;;;;;;9.16;100.00;91549.22;5049521;28;20037;-69
2023/01/18 01:57:30;;;;;;;5.75;1.60;;;;;;;9.21;100.00;91538.22;5049058;28;20509;-69
2023/01/18 02:00:00;;;;;;;7.60;3.33;;;;;;;9.24;100.00;91550.56;5049631;28;20045;-69
2023/01/18 02:02:29;;;;;;;8.25;2.22;;;;;;;9.29;100.00;91540.38;5049630;28;20040;-69
2023/01/18 02:04:57;;;;;;;5.28;1.55;;;;;;;9.30;100.00;91533.47;5049591;28;20045;-69
2023/01/18 02:07:27;;;;;;;6.95;3.33;;;;;;;9.28;100.00;91530.38;5049171;28;20045;-69
2023/01/18 02:09:57;;;;;;;9.07;2.40;;;;;;;9.27;100.00;91523.69;5049277;28;20047;-69
2023/01/18 02:12:24;;;;;;;6.60;2.03;;;;;;;9.27;100.00;91516.78;5048997;28;20500;-69
2023/01/18 02:14:52;;;;;;;4.97;1.52;;;;;;;9.26;100.00;91511.91;5049424;28;20159;-69
2023/01/18 02:17:35;;;;;;;6.03;2.47;;;;;;;9.26;100.00;91512.66;5049193;28;20045;-69
2023/01/18 02:20:45;;;;;;;5.00;1.90;;;;;;;9.24;100.00;91509.59;5049083;28;20044;-69
2023/01/18 02:23:46;;;;;;;7.85;2.53;;;;;;;9.23;100.00;91490.09;5048972;28;20049;-69
2023/01/18 02:26:46;;;;;;;7.15;1.70;;;;;;;9.23;100.00;91501.09;5029724;28;20048;-69
2023/01/18 02:29:17;;;;;;;7.07;2.17;;;;;;;9.22;100.00;91529.56;5057569;28;20048;-69
2023/01/18 02:31:53;;;;;;;7.53;1.80;;;;;;;9.29;100.00;91530.13;5068962;28;20048;-69
2023/01/18 02:34:30;;;;;;;10.95;4.35;;;;;;;9.35;100.00;91515.56;5069123;28;20048;-69
2023/01/18 02:37:04;;;;;;;7.00;2.35;;;;;;;9.40;100.00;91517.41;5069563;28;20052;-69
2023/01/18 02:39:38;;;;;;;9.35;2.38;;;;;;;9.43;100.00;91515.13;5069259;28;20455;-69
2023/01/18 02:47:43;;;;;;;8.40;2.55;;;;;;;9.47;100.00;91512.84;5068575;28;20052;-69
2023/01/18 02:50:10;;;;;;;5.20;1.52;;;;;;;9.39;100.00;91501.25;5068967;28;20049;-69
2023/01/18 02:52:40;;;;;;;9.32;1.70;;;;;;;9.49;100.00;91503.88;5068656;28;20531;-69
2023/01/18 02:55:13;;;;;;;5.40;1.30;;;;;;;9.52;100.00;91499.28;5068587;28;20036;-69
2023/01/18 02:57:40;;;;;;;6.07;1.70;;;;;;;9.55;100.00;91530.34;5068723;28;20052;-69
2023/01/18 03:00:11;;;;;;;5.63;1.80;;;;;;;9.58;100.00;91518.84;5068366;28;20124;-70
2023/01/18 03:02:39;;;;;;;5.28;2.13;;;;;;;9.59;100.00;91494.75;5068809;28;20153;-70
2023/01/18 03:05:09;;;;;;;7.40;1.88;;;;;;;9.58;100.00;91499.09;5068853;28;20044;-69
2023/01/18 03:07:44;;;;;;;7.30;3.58;;;;;;;9.61;100.00;91503.72;5068609;28;20029;-70
2023/01/18 03:10:13;;;;;;;5.22;1.60;;;;;;;9.61;100.00;91513.97;5068705;28;20106;-70
2023/01/18 03:12:49;;;;;;;7.10;1.65;;;;;;;9.62;100.00;91497.56;5068752;28;20094;-70
2023/01/18 03:15:23;;;;;;;7.03;2.00;;;;;;;9.66;100.00;91486.81;5068707;28;20045;-70
2023/01/18 03:17:51;;;;;;;10.68;2.65;;;;;;;9.68;100.00;91492.50;5068348;28;20040;-70
2023/01/18 03:20:33;;;;;;;6.90;2.10;;;;;;;9.67;100.00;91506.34;5068658;28;20486;-70
2023/01/18 03:25:51;;;;;;;10.15;2.35;;;;;;;9.70;100.00;91500.69;5068369;28;20055;-70
2023/01/18 03:34:02;;;;;;;8.30;3.25;;;;;;;9.67;100.00;91499.41;5068407;28;20602;-70
2023/01/18 03:36:32;;;;;;;5.47;1.55;;;;;;;9.71;100.00;91504.81;5068508;28;20123;-70
2023/01/18 03:39:03;;;;;;;7.68;2.33;;;;;;;9.70;100.00;91498.91;5068448;28;20090;-69
2023/01/18 03:41:33;;;;;;;7.15;2.95;;;;;;;9.68;100.00;91507.88;5068400;28;20404;-69
2023/01/18 03:44:07;;;;;;;7.90;2.30;;;;;;;9.72;100.00;91491.00;5060340;28;20149;-69
2023/01/18 03:46:36;;;;;;;5.53;1.70;;;;;;;9.74;100.00;91502.53;5066616;28;20190;-67
2023/01/18 03:49:02;;;;;;;5.80;1.40;;;;;;;9.74;100.00;91497.41;5067574;28;20428;-67
2023/01/18 03:51:40;;;;;;;7.38;2.35;;;;;;;9.67;100.00;91488.38;5068448;28;20041;-67
2023/01/18 03:54:17;;;;;;;7.38;2.05;;;;;;;9.67;100.00;91471.19;5072262;28;20109;-67
2023/01/18 03:56:53;;;;;;;8.10;1.80;;;;;;;9.72;100.00;91483.28;5071535;28;20045;-67
2023/01/18 03:59:20;;;;;;;6.13;2.15;;;;;;;9.69;100.00;91476.88;5072182;28;20056;-67
2023/01/18 04:01:49;;;;;;;6.13;1.80;;;;;;;9.73;100.00;91493.28;5071501;28;20416;-69
2023/01/18 04:04:16;;;;;;;8.80;2.72;;;;;;;9.70;100.00;91503.25;5072157;28;20114;-69
2023/01/18 04:06:43;;;;;;;6.50;2.65;;;;;;;9.70;100.00;91478.41;5071895;28;20044;-69
2023/01/18 04:09:11;;;;;;;7.20;2.30;;;;;;;9.62;100.00;91481.41;5071592;28;20504;-69
2023/01/18 04:11:38;;;;;;;10.18;2.95;;;;;;;9.69;100.00;91512.75;5071980;28;20124;-69
2023/01/18 04:14:05;;;;;;;8.93;2.10;;;;;;;9.52;100.00;91484.69;5071874;28;20048;-69
2023/01/18 04:16:31;;;;;;;7.15;2.40;;;;;;;9.72;100.00;91496.88;5071251;28;20508;-69
2023/01/18 04:19:00;;;;;;;7.78;1.70;;;;;;;9.71;100.00;91467.13;5072072;28;20044;-69
2023/01/18 04:21:26;;;;;;;9.68;1.75;;;;;;;9.72;100.00;91507.13;5071650;28;20429;-69
2023/01/18 04:23:53;;;;;;;6.43;2.03;;;;;;;9.76;100.00;91499.72;5071647;28;20098;-69
2023/01/18 04:26:20;;;;;;;9.18;3.35;;;;;;;9.73;100.00;91521.47;5071354;28;20801;-69
2023/01/18 04:28:46;;;;;;;8.85;2.17;;;;;;;9.71;100.00;91492.75;5071779;28;20041;-69
2023/01/18 04:31:13;;;;;;;8.18;3.00;;;;;;;9.72;100.00;91516.63;5071243;28;20881;-70
2023/01/18 04:33:40;;;;;;;8.10;2.78;;;;;;;9.74;100.00;91515.38;5071483;28;20040;-70
2023/01/18 04:36:09;;;;;;;10.88;2.33;;;;;;;9.72;100.00;91529.44;5071515;28;20048;-70
2023/01/18 04:38:35;;;;;;;8.95;2.95;;;;;;;9.72;100.00;91526.88;5070829;28;20096;-70
2023/01/18 04:41:03;;;;;;;11.60;3.30;;;;;;;9.58;100.00;91503.44;5071032;28;20049;-70
2023/01/18 04:43:30;;;;;;;7.43;2.47;;;;;;;9.62;100.00;91501.91;5070801;28;20048;-70
2023/01/18 04:45:57;;;;;;;7.40;2.53;;;;;;;9.57;100.00;91502.66;5059353;28;20053;-70
2023/01/18 04:48:24;;;;;;;7.95;3.13;;;;;;;9.57;100.00;91499.31;5070321;28;20045;-70
2023/01/18 04:50:51;;;;;;;7.97;2.63;;;;;;;9.56;100.00;91503.69;5071282;28;20052;-70
2023/01/18 04:53:20;;;;;;;8.07;2.17;;;;;;;9.44;100.00;91488.47;5071149;28;20101;-70
2023/01/18 04:55:47;;;;;;;11.13;2.30;;;;;;;9.56;100.00;91497.78;5071154;28;20094;-69
2023/01/18 04:58:14;;;;;;;13.00;3.03;;;;;;;9.56;100.00;91483.19;5071290;28;20057;-69
2023/01/18 05:00:40;;;;;;;11.00;2.60;;;;;;;9.58;100.00;91493.94;5070308;28;20637;-70
2023/01/18 05:03:07;;;;;;;9.32;2.00;;;;;;;9.57;100.00;91494.97;5071002;28;20090;-69
2023/01/18 05:05:34;;;;;;;7.78;1.80;;;;;;;9.64;100.00;91494.78;5070794;28;20098;-70
2023/01/18 05:08:01;;;;;;;6.28;1.70;;;;;;;9.62;100.00;91494.22;5070719;28;20052;-69
2023/01/18 05:10:30;;;;;;;7.63;3.00;;;;;;;9.63;100.00;91478.59;5070476;28;20052;-70
2023/01/18 05:13:15;;;;;;;4.97;1.38;;;;;;;9.69;100.00;91506.84;5070694;28;20044;-69
2023/01/18 05:15:41;;;;;;;7.18;2.45;;;;;;;9.74;100.00;91512.00;5069964;28;20049;-70
2023/01/18 05:18:08;;;;;;;11.80;2.58;;;;;;;9.75;100.00;91516.91;5070955;28;20049;-70
2023/01/18 05:20:35;;;;;;;4.90;1.50;;;;;;;9.79;100.00;91516.41;5070619;28;20044;-70
2023/01/18 05:23:09;;;;;;;5.97;1.60;;;;;;;9.81;100.00;91524.63;5070399;28;20052;-70
2023/01/18 05:25:39;;;;;;;9.82;2.70;;;;;;;9.84;100.00;91542.06;5070381;28;20048;-70
2023/01/18 05:28:06;;;;;;;7.13;1.85;;;;;;;9.84;100.00;91547.19;5070303;28;20147;-69
2023/01/18 05:30:32;;;;;;;6.15;2.10;;;;;;;9.86;100.00;91535.69;5070141;28;20546;-69
2023/01/18 05:33:01;;;;;;;7.40;1.92;;;;;;;9.87;100.00;91541.59;5070519;28;20044;-69
2023/01/18 05:35:28;;;;;;;7.28;1.65;;;;;;;9.83;100.00;91541.31;5070095;28;20118;-69
2023/01/18 05:37:55;;;;;;;8.57;2.08;;;;;;;9.85;100.00;91536.69;5057421;28;20523;-70
2023/01/18 05:40:21;;;;;;;7.75;1.95;;;;;;;9.87;100.00;91546.72;5069931;28;20106;-68
2023/01/18 05:42:49;;;;;;;6.68;2.33;;;;;;;9.82;100.00;91544.88;5057291;28;20110;-68
2023/01/18 05:45:16;;;;;;;7.75;2.33;;;;;;;9.78;100.00;91537.94;5043796;28;20512;-68
2023/01/18 05:47:43;;;;;;;10.77;2.50;;;;;;;9.88;100.00;91541.34;5069693;28;20095;-68
2023/01/18 05:50:10;;;;;;;9.15;2.30;;;;;;;9.91;100.00;91536.75;5069866;28;20052;-68
2023/01/18 05:52:37;;;;;;;8.10;2.35;;;;;;;9.89;100.00;91548.03;5069455;28;20044;-68
2023/01/18 05:55:04;;;;;;;7.15;3.15;;;;;;;9.93;100.00;91563.69;5069842;28;20048;-68
2023/01/18 05:57:32;;;;;;;8.23;2.58;;;;;;;9.95;100.00;91569.34;5069557;28;20052;-68
2023/01/18 06:00:01;;;;;;;9.25;2.25;;;;;;;9.93;100.00;91568.81;5069898;28;20086;-68
2023/01/18 06:02:27;;;;;;;11.98;3.10;;;;;;;9.91;100.00;91576.00;5069963;28;20048;-68
2023/01/18 06:04:54;;;;;;;8.32;1.77;;;;;;;9.88;100.00;91576.47;5069768;28;20076;-67
2023/01/18 06:07:21;;;;;;;7.63;2.50;;;;;;;9.81;100.00;91578.47;5069264;28;20508;-68
2023/01/18 06:09:47;;;;;;;6.22;2.30;;;;;;;9.84;100.00;91563.38;5069947;28;20045;-67
2023/01/18 06:12:14;;;;;;;9.23;2.65;;;;;;;9.86;100.00;91576.72;5069340;28;20048;-67
2023/01/18 06:14:41;;;;;;;6.25;2.17;;;;;;;9.84;100.00;91583.88;5069003;28;20052;-67
2023/01/18 06:17:09;;;;;;;8.05;2.00;;;;;;;9.86;100.00;91583.66;5069432;28;20559;-67
2023/01/18 06:19:36;;;;;;;10.35;2.10;;;;;;;9.81;100.00;91583.59;5069385;28;20052;-68
2023/01/18 06:22:03;;;;;;;7.63;1.52;;;;;;;9.82;100.00;91592.84;5069052;28;20047;-68
2023/01/18 06:24:30;;;;;;;9.32;1.95;;;;;;;9.88;100.00;91597.00;5069625;28;20059;-68
2023/01/18 06:26:57;;;;;;;8.32;2.35;;;;;;;9.83;100.00;91602.06;5069169;28;20040;-68
2023/01/18 06:29:24;;;;;;;9.65;2.47;;;;;;;9.85;100.00;91618.78;5069097;28;20519;-68
2023/01/18 06:31:50;;;;;;;8.77;2.08;;;;;;;9.86;100.00;91611.84;5069254;28;20125;-68
2023/01/18 06:34:18;;;;;;;6.85;1.92;;;;;;;9.85;100.00;91605.16;5064456;28;20451;-68
2023/01/18 06:36:45;;;;;;;10.40;2.22;;;;;;;9.81;100.00;91589.50;5067422;28;20040;-68
2023/01/18 06:39:12;;;;;;;9.18;2.45;;;;;;;9.81;100.00;91609.25;5069151;28;20045;-68
2023/01/18 06:41:39;;;;;;;9.02;2.47;;;;;;;9.80;100.00;91597.44;5069404;28;20044;-68
2023/01/18 06:44:06;;;;;;;9.30;2.35;;;;;;;9.78;100.00;91610.50;5069249;28;20052;-68
2023/01/18 06:46:32;;;;;;;7.38;1.70;;;;;;;9.80;100.00;91605.91;5043073;28;20093;-68
2023/01/18 06:48:59;;;;;;;10.77;2.35;;;;;;;9.84;100.00;91621.56;5068470;28;20522;-68
2023/01/18 06:51:27;;;;;;;9.60;2.53;;;;;;;9.87;100.00;91615.97;5068886;28;20036;-68
2023/01/18 06:53:54;;;;;;;9.18;2.75;;;;;;;9.91;100.00;91613.69;5068889;28;20044;-68
2023/01/18 06:56:20;;;;;;;8.05;2.47;;;;;;;9.82;100.00;91596.16;5068698;28;20606;-68
2023/01/18 06:58:47;;;;;;;9.75;2.03;;;;;;;9.86;100.00;91609.28;5068833;28;20057;-67
2023/01/18 07:01:14;;;;;;;11.98;3.13;;;;;;;9.86;100.00;91612.63;5068854;28;20074;-67
2023/01/18 07:03:41;;;;;;;12.52;3.85;;;;;;;9.90;100.00;91612.91;5068722;28;20110;-67
2023/01/18 07:06:07;;;;;;;9.70;2.80;;;;;;;9.95;100.00;91615.50;5068848;28;20562;-68
2023/01/18 07:08:35;;;;;;;7.55;1.65;;;;;;;10.02;100.00;91630.69;5068754;28;20101;-68
2023/01/18 07:11:07;;;;;;;7.38;1.92;;;;;;;10.11;100.00;91633.59;5068700;28;20049;-68
2023/01/18 07:13:34;;;;;;;8.32;2.88;;;;;;;10.19;100.00;91610.06;5068499;28;20044;-67
2023/01/18 07:16:01;;;;;;;7.63;1.80;;;;;;;10.18;100.00;91608.47;5068813;28;20464;-67
2023/01/18 07:18:29;;;;;;;9.05;2.80;;;;;;;10.17;100.00;91624.91;5069094;28;20136;-68
2023/01/18 07:20:57;;;;;;;16.08;8.13;;;;;;;10.19;100.00;91599.78;5068508;28;20052;-68
2023/01/18 07:23:24;;;;;;;34.00;18.75;;;;;;;10.18;100.00;91608.47;5068485;28;20083;-67
2023/01/18 07:25:59;;;;;;;10.43;4.25;;;;;;;10.21;100.00;91602.09;5068916;28;20423;-67
2023/01/18 07:28:26;;;;;;;12.52;5.40;;;;;;;10.16;100.00;91605.41;5072832;28;20036;-67
2023/01/18 07:30:53;;;;;;;38.28;17.00;;;;;;;10.22;100.00;91624.94;5072409;28;20513;-67
2023/01/18 07:33:20;;;;;;;20.20;11.13;;;;;;;10.29;100.00;91628.06;5072846;28;20048;-67
2023/01/18 07:35:46;;;;;;;23.77;11.57;;;;;;;10.39;100.00;91629.94;5072403;28;20041;-68
2023/01/18 07:38:13;;;;;;;10.77;4.93;;;;;;;10.45;100.00;91617.91;5072248;28;20052;-67
2023/01/18 07:40:40;;;;;;;14.55;5.70;;;;;;;10.58;100.00;91639.81;5064010;28;20825;-68
2023/01/18 07:43:08;;;;;;;17.23;7.93;;;;;;;10.75;100.00;91636.31;5068050;28;20094;-68
2023/01/18 07:45:36;;;;;;;9.27;4.07;;;;;;;10.83;100.00;91644.31;5072858;28;20041;-68
2023/01/18 07:48:03;;;;;;;5.68;2.30;;;;;;;10.77;100.00;91631.69;5072177;28;20056;-68
2023/01/18 07:50:30;;;;;;;14.93;7.53;;;;;;;10.80;100.00;91642.25;5072383;28;20393;-68
2023/01/18 07:52:57;;;;;;;5.47;2.70;;;;;;;10.89;100.00;91663.13;5059129;28;20083;-68
2023/01/18 07:55:23;;;;;;;6.38;2.65;;;;;;;10.93;100.00;91678.78;5071975;28;20044;-68
2023/01/18 07:57:50;;;;;;;4.63;2.35;;;;;;;10.93;100.00;91673.66;5072094;28;20087;-68
2023/01/18 08:00:20;;;;;;;7.38;2.80;;;;;;;11.03;100.00;91668.56;5072248;28;20037;-68
2023/01/18 08:02:50;;;;;;;7.25;2.13;;;;;;;11.07;100.00;91691.97;5072542;28;20048;-68
2023/01/18 08:05:19;;;;;;;5.10;1.90;;;;;;;11.15;100.00;91696.63;5071993;28;20102;-68
2023/01/18 08:07:46;;;;;;;8.68;2.75;;;;;;;11.29;100.00;91719.31;5072222;28;20044;-68
2023/01/18 08:10:13;;;;;;;6.78;2.33;;;;;;;11.41;100.00;91708.78;5071764;28;20505;-68
2023/01/18 08:12:41;;;;;;;6.20;2.08;;;;;;;11.57;100.00;91707.06;5071849;28;20156;-68
2023/01/18 08:15:08;;;;;;;7.30;2.00;;;;;;;11.66;100.00;91702.22;5071651;28;20048;-68
2023/01/18 08:17:36;;;;;;;6.82;2.45;;;;;;;11.65;100.00;91727.16;5071694;28;20090;-68
2023/01/18 08:20:04;;;;;;;7.32;2.17;;;;;;;11.57;100.00;91732.78;5071436;28;20048;-68
2023/01/18 08:22:31;;;;;;;7.53;2.13;;;;;;;11.46;100.00;91727.59;5071793;28;20068;-68
2023/01/18 08:24:58;;;;;;;6.85;1.90;;;;;;;11.23;100.00;91719.28;5071710;28;20053;-68
2023/01/18 08:27:24;;;;;;;4.70;1.50;;;;;;;11.48;100.00;91747.94;5071119;28;20492;-69
2023/01/18 08:29:51;;;;;;;11.20;2.58;;;;;;;11.58;100.00;91757.47;5071871;28;20045;-69
2023/01/18 08:32:18;;;;;;;10.18;3.13;;;;;;;11.62;100.00;91743.84;5066506;28;20048;-68
2023/01/18 08:34:46;;;;;;;12.18;2.40;;;;;;;11.59;100.00;91767.50;5069185;28;20045;-68
2023/01/18 08:37:13;;;;;;;7.07;2.70;;;;;;;11.55;100.00;91760.53;5071403;28;20094;-68
2023/01/18 08:39:39;;;;;;;10.50;4.10;;;;;;;11.54;100.00;91762.34;5070224;28;20086;-69
2023/01/18 08:42:06;;;;;;;14.00;4.32;;;;;;;11.67;100.00;91757.75;5071059;28;20492;-69
2023/01/18 08:44:33;;;;;;;8.95;2.33;;;;;;;11.76;100.00;91745.97;5071546;28;20041;-69
2023/01/18 08:46:59;;;;;;;9.32;2.75;;;;;;;11.87;100.00;91773.28;5071012;28;20489;-68
2023/01/18 08:49:26;;;;;;;8.07;3.55;;;;;;;11.83;100.00;91785.09;5065588;28;20118;-68
2023/01/18 08:51:55;;;;;;;16.20;7.03;;;;;;;11.89;100.00;91796.16;5063855;28;20106;-68
2023/01/18 08:54:23;;;;;;;12.13;4.60;;;;;;;11.96;100.00;91780.50;5070916;28;20080;-68
2023/01/18 08:56:51;;;;;;;15.95;6.40;;;;;;;11.99;100.00;91806.47;5070785;28;20075;-69
2023/01/18 08:59:18;;;;;;;12.63;4.60;;;;;;;12.01;100.00;91791.59;5044667;28;20182;-68
2023/01/18 09:01:45;;;;;;;12.18;6.40;;;;;;;12.12;100.00;91801.91;5071399;28;20048;-69
2023/01/18 09:04:12;;;;;;;35.60;15.93;;;;;;;12.28;100.00;91818.94;5070917;28;20094;-69
2023/01/18 09:06:39;;;;;;;16.15;5.63;;;;;;;12.49;100.00;91816.41;5070784;28;20141;-69
2023/01/18 09:09:07;;;;;;;22.77;8.73;;;;;;;12.47;100.00;91826.19;5070403;28;20569;-69
2023/01/18 09:11:34;;;;;;;11.68;4.72;;;;;;;12.58;100.00;91834.72;5070832;28;20049;-69
2023/01/18 09:14:00;;;;;;;21.50;7.28;;;;;;;12.57;100.00;91822.88;5070696;28;20056;-69
2023/01/18 09:16:28;;;;;;;20.55;10.15;;;;;;;12.47;100.00;91822.84;5070661;28;20080;-68
2023/01/18 09:18:55;;;;;;;18.60;6.72;;;;;;;12.52;100.00;91839.09;5070312;28;20036;-68
2023/01/18 09:21:22;;;;;;;11.20;5.53;;;;;;;12.51;100.00;91839.34;5070505;28;20055;-68
2023/01/18 09:23:49;;;;;;;16.17;7.25;;;;;;;12.56;100.00;91839.34;5070974;28;20036;-68
2023/01/18 09:26:19;;;;;;;12.20;4.13;;;;;;;12.61;100.00;91851.47;5070220;28;20394;-68
2023/01/18 09:28:49;;;;;;;13.05;5.63;;;;;;;12.70;100.00;91847.34;5070253;28;20048;-68
2023/01/18 09:31:17;;;;;;;14.10;4.97;;;;;;;12.67;100.00;91843.50;5070364;28;20508;-69
2023/01/18 09:33:43;;;;;;;10.32;3.53;;;;;;;12.72;100.00;91824.69;5070301;28;20127;-68
2023/01/18 09:36:13;;;;;;;21.15;9.82;;;;;;;12.91;100.00;91839.66;5070583;28;20470;-68
2023/01/18 09:38:40;;;;;;;9.63;2.83;;;;;;;12.96;100.00;91834.47;5070322;28;20040;-68
2023/01/18 09:41:20;;;;;;;18.67;8.20;;;;;;;13.10;100.00;91842.44;5070387;28;20546;-68
2023/01/18 09:43:52;;;;;;;8.98;3.75;;;;;;;13.08;100.00;91845.31;5070528;28;20049;-68
2023/01/18 09:46:20;;;;;;;11.93;3.38;;;;;;;12.96;100.00;91842.97;5070147;28;20052;-68
2023/01/18 09:48:53;;;;;;;17.55;3.80;;;;;;;12.85;100.00;91827.75;5070009;28;20094;-68
2023/01/18 09:51:22;;;;;;;13.77;4.13;;;;;;;12.81;100.00;91819.78;5069103;28;20040;-68
2023/01/18 09:54:03;;;;;;;7.32;2.28;;;;;;;12.98;100.00;91832.41;5070329;28;20105;-69
2023/01/18 09:56:36;;;;;;;7.57;2.30;;;;;;;13.01;100.00;91837.03;5069504;28;20094;-69
2023/01/18 09:59:18;;;;;;;10.35;2.75;;;;;;;12.98;100.00;91844.53;5069558;28;20106;-69
2023/01/18 10:01:45;;;;;;;4.90;1.63;;;;;;;12.93;100.00;91843.50;5069835;28;20093;-70
2023/01/18 10:04:16;;;;;;;8.25;2.15;;;;;;;12.99;100.00;91831.38;5069751;28;20055;-69
2023/01/18 10:06:47;;;;;;;6.40;2.13;;;;;;;13.08;100.00;91849.69;5069141;28;20102;-68
2023/01/18 10:09:18;;;;;;;12.88;2.13;;;;;;;13.18;100.00;91847.09;5068750;28;20044;-69
2023/01/18 10:11:53;;;;;;;5.95;1.25;;;;;;;13.26;100.00;91837.28;5056711;28;20120;-69
2023/01/18 10:14:36;;;;;;;7.15;1.90;;;;;;;13.19;99.20;91851.22;5049637;28;20051;-69
2023/01/18 10:17:09;;;;;;;5.68;1.20;;;;;;;13.04;100.00;91823.66;5048988;28;20041;-69
2023/01/18 10:19:36;;;;;;;5.38;1.60;;;;;;;13.02;99.58;91833.47;5049211;28;20094;-69
2023/01/18 10:22:06;;;;;;;7.38;2.20;;;;;;;13.00;99.89;91847.63;5049383;28;20049;-69
2023/01/18 10:24:44;;;;;;;9.00;1.52;;;;;;;12.99;100.00;91833.97;5052204;28;20052;-69
2023/01/18 10:27:34;;;;;;;10.48;2.13;;;;;;;12.89;100.00;91849.41;5069413;28;20417;-69
2023/01/18 10:30:19;;;;;;;5.40;1.90;;;;;;;13.10;100.00;91861.28;5061835;28;20048;-69
2023/01/18 10:32:52;;;;;;;5.75;1.90;;;;;;;13.20;99.89;91868.22;5069610;28;20048;-69
2023/01/18 10:35:30;;;;;;;8.38;2.47;;;;;;;13.11;99.81;91854.34;5068876;28;20097;-69
2023/01/18 10:38:00;;;;;;;8.02;1.88;;;;;;;13.21;99.38;91872.38;5069281;28;20040;-69
2023/01/18 10:40:27;;;;;;;11.18;2.65;;;;;;;13.34;97.90;91867.72;5043010;28;20078;-69
2023/01/18 10:42:58;;;;;;;15.80;5.20;;;;;;;13.38;98.77;91873.91;5069219;28;20110;-69
2023/01/18 10:45:28;;;;;;;4.95;1.42;;;;;;;13.42;97.09;91869.78;5069569;28;20072;-69
2023/01/18 10:47:58;;;;;;;6.22;2.47;;;;;;;13.50;97.94;91863.34;5069346;28;20105;-69
2023/01/18 10:50:35;;;;;;;33.72;13.32;;;;;;;13.63;97.04;91862.03;5068897;28;20102;-69
2023/01/18 10:53:20;;;;;;;9.80;2.72;;;;;;;13.59;95.17;91846.31;5069173;28;20044;-69
2023/01/18 10:55:56;;;;;;;35.78;11.77;;;;;;;13.75;95.51;91859.19;5069303;28;20131;-69
2023/01/18 10:58:31;;;;;;;19.58;5.30;;;;;;;13.81;95.01;91847.00;5044080;28;20056;-69
2023/01/18 11:01:02;;;;;;;34.23;9.40;;;;;;;13.82;94.50;91853.72;5068409;28;20091;-69
2023/01/18 11:03:32;;;;;;;68.28;19.10;;;;;;;13.92;94.29;91842.59;5068637;28;20289;-69
2023/01/18 11:06:05;;;;;;;64.65;19.40;;;;;;;13.95;94.29;91845.44;5068676;28;20082;-69
2023/01/18 11:08:34;;;;;;;43.35;11.63;;;;;;;13.94;93.99;91838.72;5068754;28;20090;-69
2023/01/18 11:11:03;;;;;;;8.18;1.83;;;;;;;13.78;92.28;91839.81;5068832;28;20052;-69
2023/01/18 11:13:33;;;;;;;10.95;3.38;;;;;;;13.74;92.85;91849.88;5068058;28;20094;-69
2023/01/18 11:16:11;;;;;;;30.48;9.73;;;;;;;13.61;92.55;91848.63;5068665;28;20082;-69
2023/01/18 11:18:39;;;;;;;14.10;3.72;;;;;;;13.54;92.76;91842.94;5068834;28;20041;-69
2023/01/18 11:21:11;;;;;;;16.23;5.47;;;;;;;13.41;93.28;91845.00;5069013;28;20106;-69
2023/01/18 11:23:37;;;;;;;26.73;8.45;;;;;;;13.32;94.45;91851.72;5068609;28;20071;-69
2023/01/18 11:26:08;;;;;;;27.25;9.13;;;;;;;13.36;94.85;91857.91;5068578;28;20098;-69
2023/01/18 11:28:38;;;;;;;49.80;17.63;;;;;;;13.40;95.18;91830.56;5068715;28;20049;-69
2023/01/18 11:31:13;;;;;;;40.20;12.10;;;;;;;13.22;94.35;91839.63;5068409;28;20497;-69
2023/01/18 11:33:49;;;;;;;56.22;16.38;;;;;;;13.38;95.15;91867.97;5068975;28;20044;-69
2023/01/18 11:36:19;;;;;;;9.15;2.90;;;;;;;13.32;93.23;91841.41;5068770;28;20052;-69
2023/01/18 11:38:47;;;;;;;15.10;3.97;;;;;;;13.35;93.16;91857.16;5068337;28;20041;-69
2023/01/18 11:41:16;;;;;;;13.98;4.00;;;;;;;13.29;94.09;91847.09;5068846;28;20045;-69
2023/01/18 11:43:53;;;;;;;20.58;4.82;;;;;;;13.33;93.47;91814.59;5068472;28;20399;-69
2023/01/18 11:46:35;;;;;;;19.88;6.85;;;;;;;13.61;92.75;91856.38;5068494;28;20057;-69
2023/01/18 11:49:15;;;;;;;36.38;11.23;;;;;;;13.74;92.56;91858.38;5044281;28;20562;-69
2023/01/18 11:51:48;;;;;;;40.03;13.27;;;;;;;13.97;91.83;91845.94;5059039;28;20041;-69
2023/01/18 11:54:25;;;;;;;27.95;9.10;;;;;;;14.07;90.48;91859.84;5053912;28;20493;-69
2023/01/18 11:56:54;;;;;;;39.72;10.55;;;;;;;14.24;89.19;91854.34;5058922;28;20099;-69
2023/01/18 11:59:26;;;;;;;23.25;7.72;;;;;;;14.29;88.87;91851.72;5068017;28;20092;-69
2023/01/18 12:02:25;;;;;;;29.40;9.20;;;;;;;14.35;87.12;91834.41;5068284;28;20082;-69
2023/01/18 12:05:10;;;;;;;53.40;16.75;;;;;;;14.35;86.77;91839.56;5068735;28;20443;-69
2023/01/18 12:07:51;;;;;;;37.17;12.02;;;;;;;14.46;85.94;91853.19;5046118;28;20056;-69
2023/01/18 12:10:22;;;;;;;23.05;6.57;;;;;;;14.29;86.20;91842.19;5067899;28;20036;-69